モンテレー の空港の天気 - METARとTAF

ヘネラル・マリアノ・エソコベド国際空港 ( MMMY / MTY ) - メキシコ ヌエボ・レオン州モンテレー
飛行場実況気象(Metar)
観測時間10/22 04:49 CDT (10/22 09:49 UTC)
風向・風速東 2m/s
視程10km以上
天気現象
全天の8割程度の雲 雲底高度 1520m
気温22℃
湿度94%
気圧1013hPa
METARMMMY 220949Z 09004KT 8SM BKN050 22/21 A2992 RMK 8/500
過去の天気等 Google飛行場航空写真 Wunderground天気予報

過去48時間のMETAR

飛行場予報(TAF)
発表時間: 10/22 06:19 CDT (10/22 11:19 UTC)
予報対象時間: 22日7時 CDT ~ 23日13時 CDT
風向・風速東南東 3m/s
視程10km以上
全天の8割程度の雲 雲底高度 910m
22日11時 CDT から
風向・風速東南東 4m/s
視程10km以上
全天の4割程度の雲 雲底高度 610m
22日21時 CDT から
風向・風速南東 3m/s
視程10km以上
全天の4割程度の雲 雲底高度 460m
23日5時 CDT ~ 23日9時 CDT に一時的に
全天の8割程度の雲 雲底高度 610m
23日11時 CDT から
風向・風速東南東 5m/s
視程10km以上
全天の4割程度の雲 雲底高度 610m
TAF MMMY 221119Z 2212/2318 12005KT P6SM BKN030 TX32/2222Z TN21/2212Z
FM221600 12008KT P6SM SCT020
FM230200 13005KT P6SM SCT015
TEMPO 2310/2314 BKN020
FM231600 12010KT P6SM SCT020